East Orange, NJ

7:45 PM EST on March 06, 2015 (GMT -0500)
Newark International | Change Station
CLOSE
Current Station
Airport
Location: Newark,
Elevation: 30 ft
Nearby Weather Stations

Elev 30 ft 40.68 °N, 74.17 °W | Updated 54 minutes ago

Partly Cloudy
Partly Cloudy
23 °F
Feels Like 11 °F
N
13
Wind Variable Wind from SW

Today
High -- | Low -- °F
--% Chance of Precip.
Yesterday
High -- | Low -- °F
Precip. -- in
6:23 AM 5:53 PM
Full, 99% visible
Pressure 30.42 in
Visibility 10.0 miles
Clouds Few 20000 ft
Mostly Cloudy 25000 ft
Windchill 11 °F
Dew Point 6 °F
Humidity 48%
Rainfall 0.00 in
Snow Depth Not available.
UV 0 out of 12
Pollen .60 out of 12
Air Quality Not available.
Flu Activity Not available.
METAR KEWR 062351Z 23011KT 10SM FEW200 BKN250 M05/M14 A3042 RMK AO2 SLP300 4/008 T10501144 11028 21061 56008

More Conditions Fewer Conditions

Pressure 30.42 in
Visibility 10.0 miles
Clouds Few 20000 ft
Mostly Cloudy 25000 ft
Windchill 11 °F
Dew Point 6 °F
Humidity 48%
Rainfall 0.00 in
Snow Depth Not available.
UV 0 out of 12
Pollen .60 out of 12
Air Quality Not available.
Flu Activity Not available.
METAR KEWR 062351Z 23011KT 10SM FEW200 BKN250 M05/M14 A3042 RMK AO2 SLP300 4/008 T10501144 11028 21061 56008

More Conditions Fewer Conditions

10-Day Weather Forecast

Almanac

Astronomy

Mar. 06, 2015 Rise Set
Actual Time
Civil Twilight
Nautical Twilight
Astronomical Twilight
Moon
Length of Visible Light
Length of Day
Tomorrow will be .
, % of the Moon is Illuminated

Today's Extremes

State Highs State Lows

Community

WunderPhotos

Upload Photos

1,803,469 photos uploaded!

WunderBlogs® & News

Nearby

Air Quality

  Air Quality AQ Index Pollutant
Not available.

Snow Depth

Station Depth Elevation

Earthquake Activity

City Distance Mag. Time & Date
Minimum magnitude displayed is 2.5.

Coastal Water Temperatures

Place Temperature

Nearby Weather Stations